createdAt,value
2018-08-06T18:27:07.348Z,31.00
2018-08-06T18:29:37.724Z,30.80
2018-08-06T18:47:42.676Z,31.30
2018-08-06T18:50:13.357Z,31.00
2018-08-06T18:52:44.621Z,32.40
2018-08-06T18:55:15.263Z,33.50
2018-08-06T19:00:19.901Z,35.20
2018-08-06T19:02:57.518Z,35.80
2018-08-06T19:05:33.899Z,36.10
2018-08-06T19:08:04.637Z,36.00
2018-08-06T19:10:34.203Z,36.10
2018-08-06T19:13:09.043Z,36.50
2018-08-06T19:18:13.981Z,37.10
2018-08-06T19:20:43.719Z,37.50
2018-08-06T19:23:13.733Z,38.40
2018-08-06T19:25:44.984Z,38.10
2018-08-06T19:28:15.020Z,38.50
2018-08-06T19:30:49.932Z,38.80
2018-08-06T19:33:20.512Z,39.00
2018-08-06T19:35:53.796Z,39.10
2018-08-06T19:38:29.194Z,39.30
2018-08-06T19:40:58.974Z,39.50
2018-08-06T19:43:34.752Z,39.60
2018-08-06T19:59:10.208Z,39.10
2018-08-06T20:01:40.990Z,38.50
2018-08-06T20:04:10.613Z,40.00
2018-08-06T20:06:40.375Z,41.10
2018-08-06T20:09:13.896Z,41.80
2018-08-06T20:11:43.736Z,42.20
2018-08-06T20:14:13.416Z,42.80
2018-08-06T20:16:43.166Z,43.10
2018-08-06T20:21:43.107Z,43.60
2018-08-06T20:29:11.956Z,44.30
2018-08-06T20:31:42.465Z,44.50
2018-08-06T20:36:44.029Z,44.90
2018-08-06T20:44:14.818Z,45.80
2018-08-06T20:46:45.755Z,45.60
2018-08-06T20:49:15.454Z,45.60
2018-08-06T20:54:14.719Z,46.00
2018-08-06T20:56:44.408Z,46.10
2018-08-06T21:01:44.116Z,46.50
2018-08-06T21:04:13.733Z,46.70
2018-08-06T21:06:43.338Z,46.90
2018-08-06T21:09:12.816Z,46.90
2018-08-06T21:11:42.316Z,46.80
2018-08-06T21:14:13.257Z,46.80
2018-08-06T21:16:42.788Z,46.90
2018-08-06T21:19:12.577Z,47.10
2018-08-06T21:24:11.416Z,47.40
2018-08-06T21:26:41.432Z,47.30
2018-08-06T21:29:11.384Z,47.10
2018-08-06T21:31:41.208Z,46.90
2018-08-06T21:34:10.883Z,46.90
2018-08-06T21:36:40.415Z,47.00
2018-08-06T21:39:11.366Z,46.90
2018-08-06T21:41:41.172Z,47.10
2018-08-06T21:44:10.825Z,47.20
2018-08-06T21:46:40.832Z,47.30
2018-08-06T21:49:10.376Z,47.60
2018-08-06T21:51:40.197Z,47.80
2018-08-06T21:54:10.059Z,48.00
2018-08-06T21:56:39.691Z,48.20
2018-08-06T21:59:09.535Z,48.30
2018-08-06T22:01:39.116Z,48.30
2018-08-06T22:04:08.915Z,48.10
2018-08-06T22:06:38.619Z,47.80
2018-08-06T22:11:40.512Z,47.30
2018-08-06T22:14:11.602Z,47.20
2018-08-06T22:16:41.354Z,47.10
2018-08-06T22:21:41.026Z,46.90
2018-08-06T22:24:11.244Z,46.60
2018-08-06T22:26:41.572Z,46.30
2018-08-06T22:29:11.867Z,46.40
2018-08-06T22:31:41.524Z,46.30
2018-08-06T22:34:11.308Z,46.50
2018-08-06T22:36:40.970Z,46.70
2018-08-06T22:46:39.486Z,47.60
2018-08-06T22:49:08.954Z,47.90
2018-08-06T22:51:39.112Z,48.10
2018-08-06T22:54:09.408Z,48.30
2018-08-06T22:56:39.521Z,48.40
2018-08-06T22:59:09.874Z,48.50
2018-08-06T23:01:39.744Z,48.60
2018-08-06T23:04:09.466Z,48.70
2018-08-06T23:06:39.262Z,48.90
2018-08-06T23:09:11.726Z,48.90
2018-08-06T23:11:42.267Z,49.00
2018-08-06T23:14:11.749Z,49.20
2018-08-06T23:19:10.436Z,49.50
2018-08-06T23:21:40.109Z,49.70
2018-08-06T23:24:09.717Z,49.80
2018-08-06T23:26:39.671Z,50.00
2018-08-06T23:29:09.877Z,50.10
2018-08-06T23:31:39.691Z,50.30
2018-08-06T23:34:09.223Z,50.40
2018-08-06T23:44:10.796Z,50.80
2018-08-06T23:46:40.641Z,51.00
2018-08-06T23:51:39.951Z,51.30
2018-08-06T23:54:09.868Z,51.40
2018-08-06T23:56:39.742Z,51.50
2018-08-06T23:59:09.572Z,51.70
